Chestnutburg, Kentucky
Current Conditions -  °F | °C
As of 7:53 AM on Thursday 23 Oct 2014 (Local Time) from KLOZ Reporting Station
Overcast Overcast  
Wind Chill: 45°   Ceiling: 2300
Heat Index: 48°   Visibility: 10mi
Dew Point: 39°   Wind: 7mph
Humidity: 71%   Direction: 30°NNE
Pressure: 30.24"   Gusts: NA
Location:  37.1101°N, 83.7537°W
Report Text: KLOZ 231153Z AUTO 03006KT 10SM OVC023 09/04 A3024 RMK AO2 SLP240 T00890039 10094 20089 50007
Loading
Personal Weather Stations






























Interactive Weather Map
Tropical Storm Tracking
New forecast layout! Learn more

10-Day Weather Forecast

Advertisements
Track Severe Weather on mobile